sensor_id;sensor_type;location;lat;lon;timestamp;P1;durP1;ratioP1;P2;durP2;ratioP2
22849;SDS011;11591;44.792;10.358;2023-03-04T00:00:29;34.53;;;18.15;;
22849;SDS011;11591;44.792;10.358;2023-03-04T00:02:55;41.08;;;18.85;;
22849;SDS011;11591;44.792;10.358;2023-03-04T00:05:21;39.42;;;18.33;;
22849;SDS011;11591;44.792;10.358;2023-03-04T00:07:47;37.88;;;18.55;;
22849;SDS011;11591;44.792;10.358;2023-03-04T00:10:13;39.10;;;17.88;;
22849;SDS011;11591;44.792;10.358;2023-03-04T00:12:38;34.88;;;17.08;;
22849;SDS011;11591;44.792;10.358;2023-03-04T00:15:04;36.15;;;17.67;;
22849;SDS011;11591;44.792;10.358;2023-03-04T00:17:30;39.95;;;18.08;;
22849;SDS011;11591;44.792;10.358;2023-03-04T00:19:56;38.42;;;16.55;;
22849;SDS011;11591;44.792;10.358;2023-03-04T00:22:22;33.47;;;16.45;;
22849;SDS011;11591;44.792;10.358;2023-03-04T00:24:48;27.60;;;14.80;;
22849;SDS011;11591;44.792;10.358;2023-03-04T00:27:14;30.13;;;16.20;;
22849;SDS011;11591;44.792;10.358;2023-03-04T00:29:40;29.92;;;15.52;;
22849;SDS011;11591;44.792;10.358;2023-03-04T00:32:06;34.13;;;16.02;;
22849;SDS011;11591;44.792;10.358;2023-03-04T00:34:31;31.23;;;15.25;;
22849;SDS011;11591;44.792;10.358;2023-03-04T00:36:57;31.70;;;15.65;;
22849;SDS011;11591;44.792;10.358;2023-03-04T00:39:28;32.70;;;14.73;;
22849;SDS011;11591;44.792;10.358;2023-03-04T00:41:54;34.45;;;15.32;;
22849;SDS011;11591;44.792;10.358;2023-03-04T00:44:20;32.33;;;15.10;;
22849;SDS011;11591;44.792;10.358;2023-03-04T00:46:46;31.13;;;15.35;;
22849;SDS011;11591;44.792;10.358;2023-03-04T00:49:12;28.60;;;15.00;;
22849;SDS011;11591;44.792;10.358;2023-03-04T00:51:38;28.85;;;14.32;;
22849;SDS011;11591;44.792;10.358;2023-03-04T00:54:04;35.35;;;15.75;;
22849;SDS011;11591;44.792;10.358;2023-03-04T00:56:30;31.85;;;14.70;;
22849;SDS011;11591;44.792;10.358;2023-03-04T00:58:55;26.35;;;14.02;;
22849;SDS011;11591;44.792;10.358;2023-03-04T01:01:21;33.47;;;14.77;;
22849;SDS011;11591;44.792;10.358;2023-03-04T01:03:47;31.95;;;14.75;;
22849;SDS011;11591;44.792;10.358;2023-03-04T01:06:13;31.73;;;14.93;;
22849;SDS011;11591;44.792;10.358;2023-03-04T01:08:39;29.05;;;15.05;;
22849;SDS011;11591;44.792;10.358;2023-03-04T01:11:04;30.52;;;15.35;;
22849;SDS011;11591;44.792;10.358;2023-03-04T01:13:31;32.10;;;15.35;;
22849;SDS011;11591;44.792;10.358;2023-03-04T01:15:57;29.90;;;15.40;;
22849;SDS011;11591;44.792;10.358;2023-03-04T01:18:24;33.00;;;15.95;;
22849;SDS011;11591;44.792;10.358;2023-03-04T01:20:50;31.83;;;15.25;;
22849;SDS011;11591;44.792;10.358;2023-03-04T01:23:16;34.03;;;14.82;;
22849;SDS011;11591;44.792;10.358;2023-03-04T01:25:41;33.22;;;14.98;;
22849;SDS011;11591;44.792;10.358;2023-03-04T01:28:07;29.55;;;14.65;;
22849;SDS011;11591;44.792;10.358;2023-03-04T01:30:33;33.92;;;14.50;;
22849;SDS011;11591;44.792;10.358;2023-03-04T01:32:59;31.73;;;14.73;;
22849;SDS011;11591;44.792;10.358;2023-03-04T01:35:25;32.50;;;15.00;;
22849;SDS011;11591;44.792;10.358;2023-03-04T01:37:50;32.00;;;15.15;;
22849;SDS011;11591;44.792;10.358;2023-03-04T01:40:17;33.35;;;14.30;;
22849;SDS011;11591;44.792;10.358;2023-03-04T01:42:43;29.95;;;14.55;;
22849;SDS011;11591;44.792;10.358;2023-03-04T01:45:11;31.83;;;14.27;;
22849;SDS011;11591;44.792;10.358;2023-03-04T01:47:39;30.70;;;15.95;;
22849;SDS011;11591;44.792;10.358;2023-03-04T01:50:10;33.90;;;15.70;;
22849;SDS011;11591;44.792;10.358;2023-03-04T01:52:58;28.25;;;13.98;;
22849;SDS011;11591;44.792;10.358;2023-03-04T01:55:25;29.55;;;14.13;;
22849;SDS011;11591;44.792;10.358;2023-03-04T01:57:53;28.20;;;13.50;;
22849;SDS011;11591;44.792;10.358;2023-03-04T02:03:05;32.20;;;14.82;;
22849;SDS011;11591;44.792;10.358;2023-03-04T02:05:33;30.85;;;14.30;;
22849;SDS011;11591;44.792;10.358;2023-03-04T02:08:01;30.65;;;13.95;;
22849;SDS011;11591;44.792;10.358;2023-03-04T02:10:28;29.67;;;14.32;;
22849;SDS011;11591;44.792;10.358;2023-03-04T02:12:55;34.20;;;14.48;;
22849;SDS011;11591;44.792;10.358;2023-03-04T02:15:21;32.10;;;14.15;;
22849;SDS011;11591;44.792;10.358;2023-03-04T02:17:48;28.08;;;13.57;;
22849;SDS011;11591;44.792;10.358;2023-03-04T02:20:17;29.95;;;14.00;;
22849;SDS011;11591;44.792;10.358;2023-03-04T02:23:00;25.40;;;12.90;;
22849;SDS011;11591;44.792;10.358;2023-03-04T02:25:45;27.48;;;14.73;;
22849;SDS011;11591;44.792;10.358;2023-03-04T02:28:15;29.27;;;13.48;;
22849;SDS011;11591;44.792;10.358;2023-03-04T02:30:41;30.73;;;13.45;;
22849;SDS011;11591;44.792;10.358;2023-03-04T02:33:10;29.67;;;14.07;;
22849;SDS011;11591;44.792;10.358;2023-03-04T02:35:40;32.53;;;14.38;;
22849;SDS011;11591;44.792;10.358;2023-03-04T02:38:08;30.20;;;14.02;;
22849;SDS011;11591;44.792;10.358;2023-03-04T02:40:35;36.95;;;15.23;;
22849;SDS011;11591;44.792;10.358;2023-03-04T02:43:03;28.35;;;13.60;;
22849;SDS011;11591;44.792;10.358;2023-03-04T02:45:30;31.48;;;14.57;;
22849;SDS011;11591;44.792;10.358;2023-03-04T02:48:04;30.10;;;15.27;;
22849;SDS011;11591;44.792;10.358;2023-03-04T02:50:32;29.23;;;13.18;;
22849;SDS011;11591;44.792;10.358;2023-03-04T02:53:00;30.73;;;14.35;;
22849;SDS011;11591;44.792;10.358;2023-03-04T02:55:26;35.65;;;14.10;;
22849;SDS011;11591;44.792;10.358;2023-03-04T02:57:53;31.33;;;14.23;;
22849;SDS011;11591;44.792;10.358;2023-03-04T03:00:18;33.08;;;14.45;;
22849;SDS011;11591;44.792;10.358;2023-03-04T03:02:44;32.42;;;14.80;;
22849;SDS011;11591;44.792;10.358;2023-03-04T03:05:11;26.80;;;13.73;;
22849;SDS011;11591;44.792;10.358;2023-03-04T03:07:39;32.30;;;15.10;;
22849;SDS011;11591;44.792;10.358;2023-03-04T03:10:04;30.95;;;14.90;;
22849;SDS011;11591;44.792;10.358;2023-03-04T03:12:31;30.88;;;14.50;;
22849;SDS011;11591;44.792;10.358;2023-03-04T03:14:56;28.90;;;14.40;;
22849;SDS011;11591;44.792;10.358;2023-03-04T03:17:23;27.77;;;13.95;;
22849;SDS011;11591;44.792;10.358;2023-03-04T03:19:49;31.55;;;15.38;;
22849;SDS011;11591;44.792;10.358;2023-03-04T03:22:15;33.85;;;14.48;;
22849;SDS011;11591;44.792;10.358;2023-03-04T03:24:41;30.00;;;15.02;;
22849;SDS011;11591;44.792;10.358;2023-03-04T03:27:07;29.73;;;13.50;;
22849;SDS011;11591;44.792;10.358;2023-03-04T03:29:33;30.75;;;14.18;;
22849;SDS011;11591;44.792;10.358;2023-03-04T03:31:59;28.27;;;12.82;;
22849;SDS011;11591;44.792;10.358;2023-03-04T03:34:24;28.35;;;14.18;;
22849;SDS011;11591;44.792;10.358;2023-03-04T03:36:50;31.52;;;14.20;;
22849;SDS011;11591;44.792;10.358;2023-03-04T03:39:16;29.55;;;14.20;;
22849;SDS011;11591;44.792;10.358;2023-03-04T03:41:42;29.90;;;14.15;;
22849;SDS011;11591;44.792;10.358;2023-03-04T03:44:08;28.45;;;14.15;;
22849;SDS011;11591;44.792;10.358;2023-03-04T03:46:33;34.25;;;14.43;;
22849;SDS011;11591;44.792;10.358;2023-03-04T03:49:00;31.73;;;13.77;;
22849;SDS011;11591;44.792;10.358;2023-03-04T03:51:25;29.73;;;13.32;;
22849;SDS011;11591;44.792;10.358;2023-03-04T03:53:51;32.15;;;14.23;;
22849;SDS011;11591;44.792;10.358;2023-03-04T03:56:17;29.25;;;14.07;;
22849;SDS011;11591;44.792;10.358;2023-03-04T03:58:43;29.38;;;13.82;;
22849;SDS011;11591;44.792;10.358;2023-03-04T04:01:09;28.92;;;13.23;;
22849;SDS011;11591;44.792;10.358;2023-03-04T04:03:34;31.42;;;13.85;;
22849;SDS011;11591;44.792;10.358;2023-03-04T04:06:00;30.58;;;14.02;;
22849;SDS011;11591;44.792;10.358;2023-03-04T04:08:26;30.73;;;13.90;;
22849;SDS011;11591;44.792;10.358;2023-03-04T04:10:52;27.23;;;13.43;;
22849;SDS011;11591;44.792;10.358;2023-03-04T04:13:18;30.05;;;13.40;;
22849;SDS011;11591;44.792;10.358;2023-03-04T04:15:43;27.95;;;14.40;;
22849;SDS011;11591;44.792;10.358;2023-03-04T04:18:09;35.90;;;14.57;;
22849;SDS011;11591;44.792;10.358;2023-03-04T04:20:35;28.88;;;14.13;;
22849;SDS011;11591;44.792;10.358;2023-03-04T04:23:01;33.45;;;14.27;;
22849;SDS011;11591;44.792;10.358;2023-03-04T04:25:27;28.40;;;13.85;;
22849;SDS011;11591;44.792;10.358;2023-03-04T04:27:53;31.00;;;14.30;;
22849;SDS011;11591;44.792;10.358;2023-03-04T04:30:19;38.20;;;13.52;;
22849;SDS011;11591;44.792;10.358;2023-03-04T04:32:45;28.30;;;12.95;;
22849;SDS011;11591;44.792;10.358;2023-03-04T04:35:10;31.73;;;13.95;;
22849;SDS011;11591;44.792;10.358;2023-03-04T04:37:36;28.90;;;14.50;;
22849;SDS011;11591;44.792;10.358;2023-03-04T04:40:02;28.08;;;13.88;;
22849;SDS011;11591;44.792;10.358;2023-03-04T04:42:29;27.73;;;13.63;;
22849;SDS011;11591;44.792;10.358;2023-03-04T04:44:55;27.67;;;13.75;;
22849;SDS011;11591;44.792;10.358;2023-03-04T04:47:21;32.40;;;13.55;;
22849;SDS011;11591;44.792;10.358;2023-03-04T04:49:47;31.75;;;13.82;;
22849;SDS011;11591;44.792;10.358;2023-03-04T04:52:13;32.45;;;13.88;;
22849;SDS011;11591;44.792;10.358;2023-03-04T04:54:39;31.23;;;14.45;;
22849;SDS011;11591;44.792;10.358;2023-03-04T04:57:04;26.17;;;12.60;;
22849;SDS011;11591;44.792;10.358;2023-03-04T04:59:30;29.23;;;14.00;;
22849;SDS011;11591;44.792;10.358;2023-03-04T05:01:56;33.67;;;13.75;;
22849;SDS011;11591;44.792;10.358;2023-03-04T05:04:22;29.95;;;13.82;;
22849;SDS011;11591;44.792;10.358;2023-03-04T05:06:47;28.58;;;12.98;;
22849;SDS011;11591;44.792;10.358;2023-03-04T05:09:13;30.42;;;14.02;;
22849;SDS011;11591;44.792;10.358;2023-03-04T05:11:39;32.85;;;14.23;;
22849;SDS011;11591;44.792;10.358;2023-03-04T05:14:05;37.35;;;14.18;;
22849;SDS011;11591;44.792;10.358;2023-03-04T05:16:31;30.67;;;14.73;;
22849;SDS011;11591;44.792;10.358;2023-03-04T05:18:57;27.10;;;13.27;;
22849;SDS011;11591;44.792;10.358;2023-03-04T05:21:23;30.98;;;14.63;;
22849;SDS011;11591;44.792;10.358;2023-03-04T05:23:49;30.33;;;13.27;;
22849;SDS011;11591;44.792;10.358;2023-03-04T05:26:15;32.28;;;13.95;;
22849;SDS011;11591;44.792;10.358;2023-03-04T05:28:42;32.08;;;14.52;;
22849;SDS011;11591;44.792;10.358;2023-03-04T05:31:08;33.03;;;14.25;;
22849;SDS011;11591;44.792;10.358;2023-03-04T05:33:34;36.05;;;15.35;;
22849;SDS011;11591;44.792;10.358;2023-03-04T05:36:01;29.33;;;13.35;;
22849;SDS011;11591;44.792;10.358;2023-03-04T05:38:28;33.72;;;14.50;;
22849;SDS011;11591;44.792;10.358;2023-03-04T05:40:58;32.70;;;13.98;;
22849;SDS011;11591;44.792;10.358;2023-03-04T05:43:26;30.45;;;13.82;;
22849;SDS011;11591;44.792;10.358;2023-03-04T05:45:53;30.00;;;14.10;;
22849;SDS011;11591;44.792;10.358;2023-03-04T05:48:19;29.20;;;13.80;;
22849;SDS011;11591;44.792;10.358;2023-03-04T05:50:45;34.88;;;14.02;;
22849;SDS011;11591;44.792;10.358;2023-03-04T05:53:11;32.65;;;14.10;;
22849;SDS011;11591;44.792;10.358;2023-03-04T05:55:37;30.10;;;13.85;;
22849;SDS011;11591;44.792;10.358;2023-03-04T05:58:02;31.45;;;13.52;;
22849;SDS011;11591;44.792;10.358;2023-03-04T06:00:28;28.73;;;13.32;;
22849;SDS011;11591;44.792;10.358;2023-03-04T06:02:54;33.35;;;14.00;;
22849;SDS011;11591;44.792;10.358;2023-03-04T06:05:20;29.42;;;13.88;;
22849;SDS011;11591;44.792;10.358;2023-03-04T06:07:46;29.80;;;13.88;;
22849;SDS011;11591;44.792;10.358;2023-03-04T06:10:13;29.05;;;13.60;;
22849;SDS011;11591;44.792;10.358;2023-03-04T06:12:40;31.67;;;14.57;;
22849;SDS011;11591;44.792;10.358;2023-03-04T06:15:06;31.67;;;13.85;;
22849;SDS011;11591;44.792;10.358;2023-03-04T06:17:34;29.77;;;13.88;;
22849;SDS011;11591;44.792;10.358;2023-03-04T06:20:00;31.27;;;13.35;;
22849;SDS011;11591;44.792;10.358;2023-03-04T06:22:26;33.75;;;14.38;;
22849;SDS011;11591;44.792;10.358;2023-03-04T06:24:52;33.63;;;14.40;;
22849;SDS011;11591;44.792;10.358;2023-03-04T06:27:18;31.77;;;13.70;;
22849;SDS011;11591;44.792;10.358;2023-03-04T06:29:44;33.83;;;15.23;;
22849;SDS011;11591;44.792;10.358;2023-03-04T06:32:10;39.88;;;18.08;;
22849;SDS011;11591;44.792;10.358;2023-03-04T06:34:35;37.08;;;17.00;;
22849;SDS011;11591;44.792;10.358;2023-03-04T06:37:01;32.15;;;14.90;;
22849;SDS011;11591;44.792;10.358;2023-03-04T06:39:27;30.83;;;14.60;;
22849;SDS011;11591;44.792;10.358;2023-03-04T06:41:53;32.03;;;15.35;;
22849;SDS011;11591;44.792;10.358;2023-03-04T06:44:19;31.13;;;14.10;;
22849;SDS011;11591;44.792;10.358;2023-03-04T06:46:44;33.90;;;15.00;;
22849;SDS011;11591;44.792;10.358;2023-03-04T06:49:10;33.42;;;14.32;;
22849;SDS011;11591;44.792;10.358;2023-03-04T06:51:36;33.35;;;15.63;;
22849;SDS011;11591;44.792;10.358;2023-03-04T06:54:02;35.33;;;14.77;;
22849;SDS011;11591;44.792;10.358;2023-03-04T06:56:28;33.22;;;14.65;;
22849;SDS011;11591;44.792;10.358;2023-03-04T06:58:53;34.35;;;15.23;;
22849;SDS011;11591;44.792;10.358;2023-03-04T07:01:20;35.70;;;16.23;;
22849;SDS011;11591;44.792;10.358;2023-03-04T07:03:49;34.00;;;15.05;;
22849;SDS011;11591;44.792;10.358;2023-03-04T07:06:16;32.58;;;15.20;;
22849;SDS011;11591;44.792;10.358;2023-03-04T07:08:44;36.20;;;14.80;;
22849;SDS011;11591;44.792;10.358;2023-03-04T07:11:10;32.80;;;15.45;;
22849;SDS011;11591;44.792;10.358;2023-03-04T07:13:36;35.50;;;15.48;;
22849;SDS011;11591;44.792;10.358;2023-03-04T07:16:06;30.95;;;14.77;;
22849;SDS011;11591;44.792;10.358;2023-03-04T07:18:33;39.70;;;15.65;;
22849;SDS011;11591;44.792;10.358;2023-03-04T07:21:00;32.90;;;15.43;;
22849;SDS011;11591;44.792;10.358;2023-03-04T07:23:26;34.08;;;15.02;;
22849;SDS011;11591;44.792;10.358;2023-03-04T07:25:52;38.35;;;15.75;;
22849;SDS011;11591;44.792;10.358;2023-03-04T07:28:18;39.63;;;16.67;;
22849;SDS011;11591;44.792;10.358;2023-03-04T07:30:44;33.60;;;16.00;;
22849;SDS011;11591;44.792;10.358;2023-03-04T07:33:10;31.42;;;16.35;;
22849;SDS011;11591;44.792;10.358;2023-03-04T07:35:36;39.95;;;16.42;;
22849;SDS011;11591;44.792;10.358;2023-03-04T07:38:02;30.35;;;14.80;;
22849;SDS011;11591;44.792;10.358;2023-03-04T07:40:28;34.83;;;15.73;;
22849;SDS011;11591;44.792;10.358;2023-03-04T07:42:54;34.30;;;15.68;;
22849;SDS011;11591;44.792;10.358;2023-03-04T07:45:21;34.38;;;15.27;;
22849;SDS011;11591;44.792;10.358;2023-03-04T07:47:47;35.20;;;15.32;;
22849;SDS011;11591;44.792;10.358;2023-03-04T07:50:14;34.25;;;15.38;;
22849;SDS011;11591;44.792;10.358;2023-03-04T07:52:41;35.03;;;17.38;;
22849;SDS011;11591;44.792;10.358;2023-03-04T07:55:09;40.85;;;17.17;;
22849;SDS011;11591;44.792;10.358;2023-03-04T07:57:39;37.58;;;16.60;;
22849;SDS011;11591;44.792;10.358;2023-03-04T08:00:07;37.53;;;16.67;;
22849;SDS011;11591;44.792;10.358;2023-03-04T08:02:37;34.45;;;16.65;;
22849;SDS011;11591;44.792;10.358;2023-03-04T08:05:03;35.47;;;16.30;;
22849;SDS011;11591;44.792;10.358;2023-03-04T08:07:30;39.40;;;16.65;;
22849;SDS011;11591;44.792;10.358;2023-03-04T08:09:55;38.65;;;17.50;;
22849;SDS011;11591;44.792;10.358;2023-03-04T08:12:21;38.10;;;17.23;;
22849;SDS011;11591;44.792;10.358;2023-03-04T08:14:49;35.40;;;17.05;;
22849;SDS011;11591;44.792;10.358;2023-03-04T08:17:15;39.25;;;17.33;;
22849;SDS011;11591;44.792;10.358;2023-03-04T08:19:41;36.78;;;16.23;;
22849;SDS011;11591;44.792;10.358;2023-03-04T08:22:07;34.50;;;16.13;;
22849;SDS011;11591;44.792;10.358;2023-03-04T08:24:33;38.13;;;16.27;;
22849;SDS011;11591;44.792;10.358;2023-03-04T08:26:59;37.55;;;16.20;;
22849;SDS011;11591;44.792;10.358;2023-03-04T08:29:25;37.75;;;17.15;;
22849;SDS011;11591;44.792;10.358;2023-03-04T08:31:52;34.53;;;15.63;;
22849;SDS011;11591;44.792;10.358;2023-03-04T08:34:19;40.22;;;16.70;;
22849;SDS011;11591;44.792;10.358;2023-03-04T08:36:47;36.17;;;15.52;;
22849;SDS011;11591;44.792;10.358;2023-03-04T08:39:13;37.40;;;15.57;;
22849;SDS011;11591;44.792;10.358;2023-03-04T08:41:40;41.40;;;16.02;;
22849;SDS011;11591;44.792;10.358;2023-03-04T08:44:07;34.17;;;15.02;;
22849;SDS011;11591;44.792;10.358;2023-03-04T08:46:35;41.63;;;16.60;;
22849;SDS011;11591;44.792;10.358;2023-03-04T08:49:01;31.65;;;16.02;;
22849;SDS011;11591;44.792;10.358;2023-03-04T08:51:28;37.92;;;16.25;;
22849;SDS011;11591;44.792;10.358;2023-03-04T08:53:54;35.58;;;16.08;;
22849;SDS011;11591;44.792;10.358;2023-03-04T08:56:20;33.92;;;16.42;;
22849;SDS011;11591;44.792;10.358;2023-03-04T08:58:46;35.95;;;16.40;;
22849;SDS011;11591;44.792;10.358;2023-03-04T09:01:12;37.60;;;17.67;;
22849;SDS011;11591;44.792;10.358;2023-03-04T09:03:39;39.20;;;16.63;;
22849;SDS011;11591;44.792;10.358;2023-03-04T09:06:05;31.00;;;13.30;;
22849;SDS011;11591;44.792;10.358;2023-03-04T09:08:32;32.90;;;15.15;;
22849;SDS011;11591;44.792;10.358;2023-03-04T09:10:58;36.00;;;14.35;;
22849;SDS011;11591;44.792;10.358;2023-03-04T09:13:24;34.13;;;14.15;;
22849;SDS011;11591;44.792;10.358;2023-03-04T09:15:52;29.10;;;14.27;;
22849;SDS011;11591;44.792;10.358;2023-03-04T09:18:19;29.70;;;13.98;;
22849;SDS011;11591;44.792;10.358;2023-03-04T09:20:45;33.15;;;14.18;;
22849;SDS011;11591;44.792;10.358;2023-03-04T09:23:13;33.38;;;13.10;;
22849;SDS011;11591;44.792;10.358;2023-03-04T09:25:40;31.70;;;12.75;;
22849;SDS011;11591;44.792;10.358;2023-03-04T09:28:06;24.65;;;12.05;;
22849;SDS011;11591;44.792;10.358;2023-03-04T09:30:32;29.35;;;13.40;;
22849;SDS011;11591;44.792;10.358;2023-03-04T09:32:59;30.13;;;12.20;;
22849;SDS011;11591;44.792;10.358;2023-03-04T09:35:25;26.35;;;12.23;;
22849;SDS011;11591;44.792;10.358;2023-03-04T09:37:51;29.15;;;13.10;;
22849;SDS011;11591;44.792;10.358;2023-03-04T09:40:19;24.25;;;12.15;;
22849;SDS011;11591;44.792;10.358;2023-03-04T09:42:49;27.40;;;12.02;;
22849;SDS011;11591;44.792;10.358;2023-03-04T09:45:18;25.77;;;11.93;;
22849;SDS011;11591;44.792;10.358;2023-03-04T09:47:47;25.90;;;12.88;;
22849;SDS011;11591;44.792;10.358;2023-03-04T09:50:16;26.50;;;11.45;;
22849;SDS011;11591;44.792;10.358;2023-03-04T09:55:35;26.48;;;12.45;;
22849;SDS011;11591;44.792;10.358;2023-03-04T10:01:00;27.75;;;11.57;;
22849;SDS011;11591;44.792;10.358;2023-03-04T10:06:35;28.83;;;11.82;;
22849;SDS011;11591;44.792;10.358;2023-03-04T10:09:15;24.60;;;12.88;;
22849;SDS011;11591;44.792;10.358;2023-03-04T10:12:05;28.75;;;13.10;;
22849;SDS011;11591;44.792;10.358;2023-03-04T10:14:37;27.15;;;13.75;;
22849;SDS011;11591;44.792;10.358;2023-03-04T10:17:13;33.20;;;14.98;;
22849;SDS011;11591;44.792;10.358;2023-03-04T10:22:43;28.75;;;14.18;;
22849;SDS011;11591;44.792;10.358;2023-03-04T10:25:21;30.60;;;13.85;;
22849;SDS011;11591;44.792;10.358;2023-03-04T10:33:30;24.77;;;13.07;;
22849;SDS011;11591;44.792;10.358;2023-03-04T10:36:03;26.88;;;12.75;;
22849;SDS011;11591;44.792;10.358;2023-03-04T10:38:39;32.17;;;13.90;;
22849;SDS011;11591;44.792;10.358;2023-03-04T10:41:14;30.88;;;13.95;;
22849;SDS011;11591;44.792;10.358;2023-03-04T10:43:41;33.25;;;15.50;;
22849;SDS011;11591;44.792;10.358;2023-03-04T10:46:11;33.70;;;15.43;;
22849;SDS011;11591;44.792;10.358;2023-03-04T10:48:39;31.92;;;15.68;;
22849;SDS011;11591;44.792;10.358;2023-03-04T10:51:11;45.70;;;21.58;;
22849;SDS011;11591;44.792;10.358;2023-03-04T10:53:43;29.13;;;14.07;;
22849;SDS011;11591;44.792;10.358;2023-03-04T11:02:20;30.60;;;14.85;;
22849;SDS011;11591;44.792;10.358;2023-03-04T11:05:20;29.73;;;13.95;;
22849;SDS011;11591;44.792;10.358;2023-03-04T11:07:39;32.28;;;13.45;;
22849;SDS011;11591;44.792;10.358;2023-03-04T11:10:40;30.73;;;14.40;;
22849;SDS011;11591;44.792;10.358;2023-03-04T11:18:41;30.63;;;13.68;;
22849;SDS011;11591;44.792;10.358;2023-03-04T11:21:07;28.10;;;13.30;;
22849;SDS011;11591;44.792;10.358;2023-03-04T11:23:45;26.60;;;13.32;;
22849;SDS011;11591;44.792;10.358;2023-03-04T11:26:17;27.80;;;14.30;;
22849;SDS011;11591;44.792;10.358;2023-03-04T11:34:52;28.92;;;13.68;;
22849;SDS011;11591;44.792;10.358;2023-03-04T11:40:24;26.23;;;12.38;;
22849;SDS011;11591;44.792;10.358;2023-03-04T11:43:02;26.13;;;13.18;;
22849;SDS011;11591;44.792;10.358;2023-03-04T11:51:36;27.88;;;13.45;;
22849;SDS011;11591;44.792;10.358;2023-03-04T11:54:37;31.42;;;14.82;;
22849;SDS011;11591;44.792;10.358;2023-03-04T12:08:47;26.42;;;12.13;;
22849;SDS011;11591;44.792;10.358;2023-03-04T12:19:51;23.90;;;12.10;;
22849;SDS011;11591;44.792;10.358;2023-03-04T12:33:50;24.15;;;10.75;;
22849;SDS011;11591;44.792;10.358;2023-03-04T12:36:30;27.05;;;11.68;;
22849;SDS011;11591;44.792;10.358;2023-03-04T12:44:55;22.27;;;9.70;;
22849;SDS011;11591;44.792;10.358;2023-03-04T12:53:13;20.85;;;10.07;;
22849;SDS011;11591;44.792;10.358;2023-03-04T12:55:42;20.50;;;9.75;;
22849;SDS011;11591;44.792;10.358;2023-03-04T12:58:28;24.08;;;11.25;;
22849;SDS011;11591;44.792;10.358;2023-03-04T13:01:02;22.83;;;10.18;;
22849;SDS011;11591;44.792;10.358;2023-03-04T13:09:37;23.13;;;10.00;;
22849;SDS011;11591;44.792;10.358;2023-03-04T13:12:19;25.75;;;10.75;;
22849;SDS011;11591;44.792;10.358;2023-03-04T13:18:01;28.17;;;12.32;;
22849;SDS011;11591;44.792;10.358;2023-03-04T13:22:58;22.17;;;10.52;;
22849;SDS011;11591;44.792;10.358;2023-03-04T13:25:30;23.50;;;11.35;;
22849;SDS011;11591;44.792;10.358;2023-03-04T13:43:36;25.10;;;11.65;;
22849;SDS011;11591;44.792;10.358;2023-03-04T13:48:50;28.75;;;12.02;;
22849;SDS011;11591;44.792;10.358;2023-03-04T13:51:26;22.50;;;11.52;;
22849;SDS011;11591;44.792;10.358;2023-03-04T13:56:47;20.73;;;11.50;;
22849;SDS011;11591;44.792;10.358;2023-03-04T14:02:33;24.33;;;13.73;;
22849;SDS011;11591;44.792;10.358;2023-03-04T14:05:00;27.55;;;16.08;;
22849;SDS011;11591;44.792;10.358;2023-03-04T14:07:33;24.95;;;15.15;;
22849;SDS011;11591;44.792;10.358;2023-03-04T14:12:40;22.30;;;13.32;;
22849;SDS011;11591;44.792;10.358;2023-03-04T14:17:45;22.65;;;12.45;;
22849;SDS011;11591;44.792;10.358;2023-03-04T14:20:20;20.15;;;12.30;;
22849;SDS011;11591;44.792;10.358;2023-03-04T14:22:48;22.52;;;11.85;;
22849;SDS011;11591;44.792;10.358;2023-03-04T14:25:22;21.95;;;12.25;;
22849;SDS011;11591;44.792;10.358;2023-03-04T14:27:49;24.80;;;12.85;;
22849;SDS011;11591;44.792;10.358;2023-03-04T14:30:26;22.85;;;12.48;;
22849;SDS011;11591;44.792;10.358;2023-03-04T14:32:53;22.98;;;12.38;;
22849;SDS011;11591;44.792;10.358;2023-03-04T14:35:28;20.75;;;12.27;;
22849;SDS011;11591;44.792;10.358;2023-03-04T14:38:40;23.67;;;13.02;;
22849;SDS011;11591;44.792;10.358;2023-03-04T14:40:58;25.48;;;12.63;;
22849;SDS011;11591;44.792;10.358;2023-03-04T14:43:29;24.73;;;13.50;;
22849;SDS011;11591;44.792;10.358;2023-03-04T14:46:00;24.30;;;12.88;;
22849;SDS011;11591;44.792;10.358;2023-03-04T14:48:28;22.98;;;13.38;;
22849;SDS011;11591;44.792;10.358;2023-03-04T14:50:56;18.88;;;12.25;;
22849;SDS011;11591;44.792;10.358;2023-03-04T14:53:27;22.45;;;13.38;;
22849;SDS011;11591;44.792;10.358;2023-03-04T14:56:08;19.75;;;12.35;;
22849;SDS011;11591;44.792;10.358;2023-03-04T14:58:37;22.88;;;12.93;;
22849;SDS011;11591;44.792;10.358;2023-03-04T15:01:16;23.67;;;13.73;;
22849;SDS011;11591;44.792;10.358;2023-03-04T15:06:36;23.83;;;13.40;;
22849;SDS011;11591;44.792;10.358;2023-03-04T15:09:25;22.65;;;13.27;;
22849;SDS011;11591;44.792;10.358;2023-03-04T15:11:55;22.90;;;13.73;;
22849;SDS011;11591;44.792;10.358;2023-03-04T15:14:47;23.85;;;13.70;;
22849;SDS011;11591;44.792;10.358;2023-03-04T15:22:34;23.33;;;13.90;;
22849;SDS011;11591;44.792;10.358;2023-03-04T15:25:20;23.33;;;13.18;;
22849;SDS011;11591;44.792;10.358;2023-03-04T15:27:46;23.15;;;13.18;;
22849;SDS011;11591;44.792;10.358;2023-03-04T15:30:14;24.60;;;13.82;;
22849;SDS011;11591;44.792;10.358;2023-03-04T15:32:42;21.25;;;13.18;;
22849;SDS011;11591;44.792;10.358;2023-03-04T15:35:17;22.13;;;13.20;;
22849;SDS011;11591;44.792;10.358;2023-03-04T15:37:44;21.38;;;13.13;;
22849;SDS011;11591;44.792;10.358;2023-03-04T15:40:20;21.10;;;12.52;;
22849;SDS011;11591;44.792;10.358;2023-03-04T15:42:52;28.60;;;13.60;;
22849;SDS011;11591;44.792;10.358;2023-03-04T15:45:21;21.30;;;12.80;;
22849;SDS011;11591;44.792;10.358;2023-03-04T15:47:47;26.85;;;13.55;;
22849;SDS011;11591;44.792;10.358;2023-03-04T15:50:14;27.27;;;13.85;;
22849;SDS011;11591;44.792;10.358;2023-03-04T15:52:40;22.90;;;12.90;;
22849;SDS011;11591;44.792;10.358;2023-03-04T15:55:09;24.45;;;13.55;;
22849;SDS011;11591;44.792;10.358;2023-03-04T15:57:39;25.60;;;13.55;;
22849;SDS011;11591;44.792;10.358;2023-03-04T16:00:05;22.98;;;12.93;;
22849;SDS011;11591;44.792;10.358;2023-03-04T16:02:36;26.08;;;13.98;;
22849;SDS011;11591;44.792;10.358;2023-03-04T16:05:02;23.13;;;12.38;;
22849;SDS011;11591;44.792;10.358;2023-03-04T16:07:28;26.98;;;12.90;;
22849;SDS011;11591;44.792;10.358;2023-03-04T16:09:55;25.75;;;13.85;;
22849;SDS011;11591;44.792;10.358;2023-03-04T16:12:24;25.60;;;13.68;;
22849;SDS011;11591;44.792;10.358;2023-03-04T16:14:51;29.95;;;14.60;;
22849;SDS011;11591;44.792;10.358;2023-03-04T16:17:17;26.90;;;13.90;;
22849;SDS011;11591;44.792;10.358;2023-03-04T16:19:44;26.90;;;13.57;;
22849;SDS011;11591;44.792;10.358;2023-03-04T16:22:16;23.77;;;13.55;;
22849;SDS011;11591;44.792;10.358;2023-03-04T16:24:48;25.77;;;13.40;;
22849;SDS011;11591;44.792;10.358;2023-03-04T16:27:15;27.08;;;13.77;;
22849;SDS011;11591;44.792;10.358;2023-03-04T16:29:43;28.67;;;13.95;;
22849;SDS011;11591;44.792;10.358;2023-03-04T16:32:09;30.05;;;14.60;;
22849;SDS011;11591;44.792;10.358;2023-03-04T16:34:35;33.10;;;14.05;;